Time;durP1;ratioP1;P1;durP2;ratioP2;P2;SDS_P1;SDS_P2;PMS_P1;PMS_P2;Temp;Humidity;BMP_temperature;BMP_pressure;BME280_temperature;BME280_humidity;BME280_pressure;Samples;Min_cycle;Max_cycle;Signal;HPM_P1;HPM_P2
2022/03/12 00:00:30;;;;;;;23.85;13.30;;;;;;;3.26;47.35;96632.03;2066419;28;20221;-61
2022/03/12 00:01:31;;;;;;;31.27;12.35;;;;;;;3.33;47.27;96628.28;2069486;28;20198;-61
2022/03/12 00:02:34;;;;;;;24.38;12.90;;;;;;;3.47;47.56;96631.19;2070106;28;20213;-61
2022/03/12 00:03:36;;;;;;;28.60;12.95;;;;;;;3.46;47.19;96634.66;2068539;28;20245;-61
2022/03/12 00:04:38;;;;;;;22.00;12.10;;;;;;;3.46;46.74;96628.66;2067456;28;20194;-61
2022/03/12 00:05:48;;;;;;;24.50;11.90;;;;;;;3.56;46.81;96635.13;2067964;28;20214;-61
2022/03/12 00:06:49;;;;;;;25.08;11.60;;;;;;;3.56;47.00;96635.13;2069465;28;20634;-61
2022/03/12 00:07:51;;;;;;;26.73;12.60;;;;;;;3.60;47.07;96641.88;2070248;28;20812;-61
2022/03/12 00:08:55;;;;;;;29.88;12.73;;;;;;;3.59;47.29;96647.09;2069608;28;20202;-61
2022/03/12 00:09:57;;;;;;;21.00;12.02;;;;;;;3.54;47.29;96645.53;2069114;28;20199;-61
2022/03/12 00:11:00;;;;;;;22.48;13.02;;;;;;;3.47;47.39;96643.25;2065064;28;20206;-61
2022/03/12 00:12:02;;;;;;;23.02;12.50;;;;;;;3.37;48.46;96640.19;2067324;28;20734;-61
2022/03/12 00:13:03;;;;;;;22.42;12.05;;;;;;;3.29;49.02;96640.53;2066813;28;20206;-61
2022/03/12 00:14:07;;;;;;;22.95;12.20;;;;;;;3.25;47.88;96636.34;2067425;28;20198;-60
2022/03/12 00:15:11;;;;;;;24.42;12.35;;;;;;;3.42;46.90;96637.44;2066866;28;20193;-60
2022/03/12 00:16:16;;;;;;;21.95;12.43;;;;;;;3.54;46.39;96650.72;2068230;28;20213;-60
2022/03/12 00:17:18;;;;;;;21.52;10.55;;;;;;;3.58;46.53;96645.44;2069821;28;20212;-61
2022/03/12 00:18:20;;;;;;;22.10;11.35;;;;;;;3.61;46.32;96647.88;2068198;28;20544;-60
2022/03/12 00:19:22;;;;;;;26.10;11.52;;;;;;;3.70;46.08;96652.72;2068708;28;20642;-61
2022/03/12 00:20:26;;;;;;;20.60;11.13;;;;;;;3.65;46.00;96634.78;2065218;28;20729;-60
2022/03/12 00:21:30;;;;;;;21.10;11.35;;;;;;;3.67;46.26;96643.31;2068221;28;20195;-61
2022/03/12 00:22:32;;;;;;;32.22;11.80;;;;;;;3.68;46.01;96650.16;2068351;28;20194;-61
2022/03/12 00:23:34;;;;;;;20.38;10.10;;;;;;;3.72;45.71;96646.56;2069518;28;20202;-61
2022/03/12 00:24:41;;;;;;;25.92;10.73;;;;;;;3.80;45.39;96640.22;2071484;28;20255;-61
2022/03/12 00:25:44;;;;;;;21.58;10.30;;;;;;;3.88;45.44;96648.50;2066447;28;20230;-61
2022/03/12 00:26:49;;;;;;;30.85;12.20;;;;;;;3.79;45.55;96643.72;2067841;28;20202;-61
2022/03/12 00:27:52;;;;;;;21.25;11.00;;;;;;;3.86;46.14;96638.25;2068614;28;20193;-61
2022/03/12 00:28:54;;;;;;;21.55;10.90;;;;;;;3.88;46.02;96638.16;2067999;28;20198;-61
2022/03/12 00:29:56;;;;;;;21.98;10.48;;;;;;;4.03;45.52;96642.69;2066591;28;20291;-61
2022/03/12 00:30:57;;;;;;;23.83;10.73;;;;;;;4.08;44.56;96627.81;2067785;28;20193;-60
2022/03/12 00:31:59;;;;;;;25.02;12.23;;;;;;;4.15;44.66;96642.16;2068505;28;20720;-61
2022/03/12 00:33:01;;;;;;;19.58;10.35;;;;;;;4.14;44.76;96644.84;2068125;28;20197;-61
2022/03/12 00:34:03;;;;;;;23.08;12.10;;;;;;;4.09;44.87;96639.00;2068723;28;20201;-61
2022/03/12 00:35:08;;;;;;;20.58;11.25;;;;;;;4.07;45.31;96646.00;2067114;28;20206;-61
2022/03/12 00:36:12;;;;;;;19.73;10.25;;;;;;;4.10;44.95;96648.47;2068122;28;20206;-61
2022/03/12 00:37:14;;;;;;;21.88;11.45;;;;;;;3.92;47.03;96640.56;2068920;28;20707;-60
2022/03/12 00:38:17;;;;;;;24.27;12.88;;;;;;;3.47;48.55;96643.25;2067064;28;20202;-61
2022/03/12 00:39:18;;;;;;;28.83;12.07;;;;;;;3.58;48.43;96648.88;2070201;28;20202;-61
2022/03/12 00:40:20;;;;;;;18.77;10.93;;;;;;;3.64;48.45;96647.78;2067974;28;20234;-61
2022/03/12 00:41:22;;;;;;;24.00;12.95;;;;;;;3.66;47.60;96649.38;2066635;28;20554;-61
2022/03/12 00:42:23;;;;;;;21.77;10.95;;;;;;;3.75;46.88;96651.63;2067431;28;20201;-61
2022/03/12 00:43:25;;;;;;;25.83;12.38;;;;;;;3.91;45.93;96645.81;2067466;28;20257;-60
2022/03/12 00:44:27;;;;;;;24.45;12.77;;;;;;;4.06;45.18;96650.34;2071049;28;20643;-61
2022/03/12 00:45:29;;;;;;;20.13;10.70;;;;;;;4.01;45.41;96635.91;2068424;28;20223;-61
2022/03/12 00:46:31;;;;;;;19.25;10.63;;;;;;;4.08;45.34;96642.53;2066274;28;20289;-61
2022/03/12 00:47:33;;;;;;;23.02;11.98;;;;;;;4.07;45.46;96646.84;2067021;28;20221;-61
2022/03/12 00:48:35;;;;;;;22.67;10.43;;;;;;;4.11;45.24;96651.00;2068071;28;20206;-61
2022/03/12 00:49:39;;;;;;;29.63;12.38;;;;;;;4.08;45.22;96645.94;2068113;28;20198;-61
2022/03/12 00:50:41;;;;;;;19.58;10.60;;;;;;;4.09;45.17;96639.84;2066049;28;20234;-60
2022/03/12 00:51:44;;;;;;;26.75;11.43;;;;;;;4.18;45.27;96648.16;2068322;28;20550;-61
2022/03/12 00:52:46;;;;;;;24.63;11.30;;;;;;;4.20;44.96;96641.16;2066826;28;20620;-61
2022/03/12 00:53:47;;;;;;;30.83;12.00;;;;;;;4.24;45.01;96637.53;2066456;28;20601;-61
2022/03/12 00:54:49;;;;;;;22.05;11.63;;;;;;;4.27;45.21;96645.16;2067748;28;20202;-60
2022/03/12 00:55:50;;;;;;;19.50;10.60;;;;;;;4.26;45.10;96649.50;2065164;28;20222;-61
2022/03/12 00:56:52;;;;;;;22.17;11.65;;;;;;;4.22;45.25;96642.78;2067329;28;20198;-61
2022/03/12 00:57:54;;;;;;;22.92;10.93;;;;;;;4.32;44.66;96638.03;2069179;28;20195;-61
2022/03/12 00:58:57;;;;;;;23.88;11.38;;;;;;;4.27;45.54;96640.84;2067850;28;20637;-61
2022/03/12 00:59:58;;;;;;;25.15;10.98;;;;;;;4.32;44.75;96638.88;2069856;28;20775;-61
2022/03/12 01:01:00;;;;;;;20.33;11.60;;;;;;;4.22;45.31;96641.94;2069038;28;20207;-61
2022/03/12 01:02:02;;;;;;;16.67;11.05;;;;;;;4.20;45.29;96641.16;2068475;28;20652;-61
2022/03/12 01:03:04;;;;;;;21.45;10.00;;;;;;;4.27;45.16;96650.34;2070028;28;20333;-61
2022/03/12 01:04:06;;;;;;;21.88;11.10;;;;;;;4.19;45.40;96639.47;2067568;28;20737;-61
2022/03/12 01:05:08;;;;;;;25.70;12.05;;;;;;;4.08;45.63;96650.31;2068799;28;20202;-61
2022/03/12 01:06:13;;;;;;;23.35;10.98;;;;;;;4.08;45.35;96648.53;2067501;28;20198;-61
2022/03/12 01:07:16;;;;;;;23.67;12.93;;;;;;;4.13;45.70;96649.16;2066648;28;20193;-61
2022/03/12 01:08:18;;;;;;;26.40;10.80;;;;;;;4.03;46.28;96655.66;2067954;28;20553;-61
2022/03/12 01:09:19;;;;;;;21.45;12.25;;;;;;;3.88;46.90;96641.59;2068666;28;20206;-61
2022/03/12 01:10:21;;;;;;;20.75;11.60;;;;;;;3.96;46.03;96643.88;2066162;28;20233;-61
2022/03/12 01:11:22;;;;;;;29.65;12.57;;;;;;;3.97;45.71;96651.56;2069546;28;20198;-61
2022/03/12 01:12:24;;;;;;;25.70;10.95;;;;;;;4.11;45.51;96653.59;2063866;28;20700;-61
2022/03/12 01:13:27;;;;;;;24.13;11.23;;;;;;;4.02;45.62;96646.22;2066645;28;20711;-61
2022/03/12 01:14:29;;;;;;;20.88;11.85;;;;;;;4.03;45.41;96653.06;2064988;28;20210;-61
2022/03/12 01:15:32;;;;;;;29.92;13.10;;;;;;;4.01;45.65;96646.28;2067632;28;20221;-61
2022/03/12 01:16:34;;;;;;;27.77;11.30;;;;;;;3.92;46.09;96642.28;2067549;28;20205;-61
2022/03/12 01:17:36;;;;;;;20.23;11.70;;;;;;;3.98;45.93;96649.84;2069679;28;20217;-61
2022/03/12 01:18:39;;;;;;;26.45;11.13;;;;;;;4.06;46.13;96652.13;2068423;28;20545;-61
2022/03/12 01:19:40;;;;;;;24.60;11.45;;;;;;;4.03;45.98;96653.06;2068848;28;20675;-61
2022/03/12 01:20:43;;;;;;;32.85;11.93;;;;;;;3.98;46.69;96652.44;2068413;28;20232;-60
2022/03/12 01:21:44;;;;;;;17.88;11.48;;;;;;;4.02;45.93;96659.16;2068056;28;20206;-61
2022/03/12 01:22:46;;;;;;;23.15;12.80;;;;;;;4.00;46.28;96652.34;2067253;28;20198;-60
2022/03/12 01:23:49;;;;;;;25.52;10.75;;;;;;;4.08;45.77;96653.72;2067518;28;20204;-61
2022/03/12 01:24:50;;;;;;;21.48;11.75;;;;;;;4.18;45.61;96654.19;2065636;28;20209;-61
2022/03/12 01:25:53;;;;;;;23.17;11.75;;;;;;;4.21;45.07;96654.03;2068776;28;20743;-61
2022/03/12 01:26:55;;;;;;;21.25;11.82;;;;;;;4.14;45.52;96652.63;2068145;28;20256;-61
2022/03/12 01:27:56;;;;;;;25.02;11.10;;;;;;;4.10;45.55;96654.50;2067597;28;20218;-61
2022/03/12 01:28:58;;;;;;;17.92;12.00;;;;;;;4.12;45.53;96651.84;2067633;28;20194;-61
2022/03/12 01:30:01;;;;;;;29.70;12.43;;;;;;;4.09;45.70;96647.63;2067791;28;20650;-61
2022/03/12 01:31:03;;;;;;;26.00;12.25;;;;;;;4.07;45.54;96652.03;2068416;28;20202;-60
2022/03/12 01:32:05;;;;;;;25.38;11.93;;;;;;;4.05;45.73;96648.66;2068297;28;20190;-60
2022/03/12 01:33:08;;;;;;;27.85;12.13;;;;;;;4.11;45.60;96651.00;2066338;28;20202;-61
2022/03/12 01:34:10;;;;;;;34.78;12.23;;;;;;;4.12;45.61;96647.50;2066067;28;20198;-61
2022/03/12 01:35:11;;;;;;;26.20;12.15;;;;;;;4.16;45.64;96653.41;2065053;28;20225;-61
2022/03/12 01:36:13;;;;;;;19.88;11.23;;;;;;;4.24;45.67;96648.72;2066664;28;20198;-61
2022/03/12 01:37:19;;;;;;;20.60;11.75;;;;;;;4.19;46.38;96648.06;2067899;28;20212;-60
2022/03/12 01:38:29;;;;;;;23.38;12.52;;;;;;;4.21;46.16;96642.84;2065501;28;20255;-61
2022/03/12 01:39:30;;;;;;;28.08;11.90;;;;;;;4.27;45.43;96648.63;2066816;28;20197;-60
2022/03/12 01:40:33;;;;;;;20.60;11.38;;;;;;;4.24;45.15;96642.72;2066294;28;20224;-61
2022/03/12 01:41:40;;;;;;;24.98;11.85;;;;;;;4.25;45.53;96645.22;2067243;28;20206;-61
2022/03/12 01:42:43;;;;;;;21.73;10.98;;;;;;;4.15;45.45;96634.41;2067206;28;20217;-60
2022/03/12 01:43:45;;;;;;;21.08;11.27;;;;;;;4.31;45.27;96644.13;2066930;28;20201;-60
2022/03/12 01:44:47;;;;;;;21.98;12.10;;;;;;;4.39;44.88;96642.06;2065844;28;20261;-61
2022/03/12 01:45:48;;;;;;;23.77;12.10;;;;;;;4.36;45.05;96644.78;2066114;28;20222;-61
2022/03/12 01:46:50;;;;;;;32.58;11.45;;;;;;;4.30;45.06;96634.66;2065453;28;20645;-61
2022/03/12 01:47:55;;;;;;;34.88;11.60;;;;;;;4.32;44.95;96632.84;2065704;28;20214;-61
2022/03/12 01:48:59;;;;;;;24.10;12.25;;;;;;;4.29;45.56;96636.44;2064956;28;20237;-61
2022/03/12 01:50:01;;;;;;;26.42;10.93;;;;;;;4.32;45.28;96630.25;2067276;28;20198;-61
2022/03/12 01:51:03;;;;;;;20.95;11.13;;;;;;;4.41;45.01;96635.06;2069046;28;20241;-61
2022/03/12 01:52:07;;;;;;;24.58;10.35;;;;;;;4.39;44.76;96628.22;2067694;28;20699;-61
2022/03/12 01:53:10;;;;;;;29.25;11.20;;;;;;;4.21;45.40;96637.66;2067903;28;20252;-61
2022/03/12 01:54:16;;;;;;;23.27;11.13;;;;;;;4.26;45.46;96640.91;2065858;28;20216;-60
2022/03/12 01:55:17;;;;;;;22.67;11.75;;;;;;;4.28;45.19;96633.91;2069747;28;20221;-60
2022/03/12 01:56:20;;;;;;;25.83;11.25;;;;;;;4.38;45.02;96637.75;2064888;28;20194;-61
2022/03/12 01:57:22;;;;;;;29.27;12.60;;;;;;;4.36;45.38;96640.41;2064740;28;20555;-60
2022/03/12 01:58:24;;;;;;;20.02;10.38;;;;;;;4.29;45.31;96636.44;2065475;28;20201;-61
2022/03/12 01:59:26;;;;;;;27.17;12.07;;;;;;;4.25;45.87;96634.84;2066557;28;20201;-61
2022/03/12 02:00:38;;;;;;;21.08;10.35;;;;;;;4.22;46.07;96639.34;2067586;28;20248;-61
2022/03/12 02:01:40;;;;;;;23.48;11.77;;;;;;;4.21;46.08;96635.88;2068695;28;20221;-61
2022/03/12 02:02:42;;;;;;;22.90;11.68;;;;;;;4.31;45.51;96650.16;2069196;28;20221;-61
2022/03/12 02:03:45;;;;;;;23.35;12.20;;;;;;;4.24;45.93;96643.53;2068195;28;20296;-61
2022/03/12 02:04:52;;;;;;;20.88;11.43;;;;;;;4.21;45.93;96642.84;2067361;28;20203;-62
2022/03/12 02:05:58;;;;;;;23.20;11.80;;;;;;;4.19;46.28;96632.53;2067921;28;20215;-60
2022/03/12 02:06:59;;;;;;;21.85;11.90;;;;;;;4.17;46.06;96636.94;2070507;28;20284;-60
2022/03/12 02:08:02;;;;;;;39.40;11.95;;;;;;;4.16;46.56;96637.84;2066951;28;20220;-61
2022/03/12 02:09:03;;;;;;;21.00;12.45;;;;;;;4.06;47.10;96629.63;2067693;28;20216;-61
2022/03/12 02:10:08;;;;;;;23.70;11.70;;;;;;;4.10;47.11;96638.94;2066724;28;20230;-60
2022/03/12 02:11:10;;;;;;;23.90;11.75;;;;;;;4.08;47.67;96648.53;2065924;28;20205;-61
2022/03/12 02:12:11;;;;;;;22.63;12.55;;;;;;;4.01;49.15;96647.09;2068146;28;20554;-58
2022/03/12 02:13:14;;;;;;;31.48;13.20;;;;;;;3.89;50.21;96647.63;2067813;28;20720;-61
2022/03/12 02:14:23;;;;;;;27.67;13.15;;;;;;;3.73;50.95;96645.66;2070400;28;20202;-61
2022/03/12 02:15:25;;;;;;;28.15;13.43;;;;;;;3.42;51.60;96642.63;2068354;28;20226;-61
2022/03/12 02:16:28;;;;;;;24.60;12.93;;;;;;;3.56;51.15;96646.31;2069247;28;20193;-61
2022/03/12 02:17:30;;;;;;;25.20;12.93;;;;;;;3.78;50.67;96640.28;2070442;28;20202;-61
2022/03/12 02:18:31;;;;;;;24.60;12.10;;;;;;;3.78;50.52;96637.69;2067781;28;20395;-60
2022/03/12 02:19:33;;;;;;;27.80;12.43;;;;;;;3.79;50.65;96635.97;2070129;28;20201;-61
2022/03/12 02:20:35;;;;;;;24.92;12.75;;;;;;;3.80;49.76;96641.06;2065028;28;20593;-61
2022/03/12 02:21:42;;;;;;;28.90;13.80;;;;;;;3.72;50.60;96643.13;2065277;28;20194;-61
2022/03/12 02:22:45;;;;;;;23.63;13.10;;;;;;;3.63;51.09;96639.16;2066705;28;20248;-61
2022/03/12 02:23:48;;;;;;;27.25;13.27;;;;;;;3.62;51.66;96642.66;2067874;28;20199;-61
2022/03/12 02:24:50;;;;;;;30.65;13.82;;;;;;;3.51;52.15;96642.25;2066557;28;20209;-62
2022/03/12 02:25:51;;;;;;;27.95;13.90;;;;;;;3.63;51.42;96648.69;2066377;28;20205;-61
2022/03/12 02:26:54;;;;;;;23.58;12.60;;;;;;;3.66;51.51;96641.63;2067417;28;20221;-61
2022/03/12 02:27:57;;;;;;;21.65;13.32;;;;;;;3.64;51.24;96642.59;2068709;28;20206;-61
2022/03/12 02:28:59;;;;;;;31.48;14.10;;;;;;;3.63;51.01;96646.94;2066879;28;20201;-61
2022/03/12 02:30:02;;;;;;;24.92;12.57;;;;;;;3.68;50.74;96644.16;2068127;28;20221;-61
2022/03/12 02:31:05;;;;;;;29.42;12.45;;;;;;;3.60;51.02;96644.47;2063540;28;20661;-61
2022/03/12 02:32:10;;;;;;;30.77;13.60;;;;;;;3.63;51.23;96646.94;2065639;28;20228;-61
2022/03/12 02:33:12;;;;;;;27.05;13.70;;;;;;;3.56;51.78;96650.66;2066996;28;20205;-61
2022/03/12 02:34:19;;;;;;;37.65;14.32;;;;;;;3.49;52.00;96652.69;2068923;28;20646;-61
2022/03/12 02:35:24;;;;;;;26.42;14.32;;;;;;;3.43;52.61;96649.47;2070009;28;20218;-62
2022/03/12 02:36:27;;;;;;;30.15;15.57;;;;;;;3.29;52.81;96650.00;2069322;28;20207;-61
2022/03/12 02:37:30;;;;;;;23.95;13.93;;;;;;;3.31;52.85;96646.47;2070747;28;20202;-61
2022/03/12 02:38:31;;;;;;;33.08;14.88;;;;;;;3.19;53.03;96652.09;2069400;28;20253;-61
2022/03/12 02:39:37;;;;;;;27.45;15.10;;;;;;;3.08;53.50;96654.28;2070709;28;20198;-61
2022/03/12 02:40:41;;;;;;;24.38;14.73;;;;;;;3.06;53.46;96658.66;2068193;28;20217;-61
2022/03/12 02:41:43;;;;;;;26.05;14.52;;;;;;;3.05;53.86;96655.22;2070710;28;20201;-61
2022/03/12 02:42:46;;;;;;;29.90;14.63;;;;;;;2.97;54.05;96652.94;2068794;28;20209;-61
2022/03/12 02:43:47;;;;;;;30.08;16.63;;;;;;;3.04;53.78;96656.16;2067274;28;20209;-61
2022/03/12 02:44:50;;;;;;;31.23;16.13;;;;;;;3.09;53.47;96655.97;2069105;28;20228;-61
2022/03/12 02:45:55;;;;;;;33.33;16.15;;;;;;;3.07;53.90;96656.00;2068918;28;20587;-61
2022/03/12 02:47:15;;;;;;;32.33;17.95;;;;;;;2.97;53.58;96629.63;2067996;28;20200;-61
2022/03/12 02:48:18;;;;;;;33.65;16.90;;;;;;;3.10;53.66;96649.91;2068511;28;20202;-61
2022/03/12 02:49:20;;;;;;;24.98;14.95;;;;;;;3.11;53.35;96655.00;2069176;28;20198;-61
2022/03/12 02:50:23;;;;;;;29.70;15.82;;;;;;;3.06;53.57;96651.75;2068110;28;20229;-61
2022/03/12 02:51:26;;;;;;;31.00;14.30;;;;;;;3.17;53.31;96651.31;2068076;28;20203;-61
2022/03/12 02:52:29;;;;;;;34.13;14.50;;;;;;;3.13;53.13;96642.00;2069415;28;20194;-61
2022/03/12 02:53:31;;;;;;;34.47;14.85;;;;;;;3.07;52.59;96644.81;2067244;28;20217;-61
2022/03/12 02:54:34;;;;;;;30.40;14.55;;;;;;;3.04;53.10;96642.34;2068577;28;20194;-61
2022/03/12 02:55:40;;;;;;;28.35;14.48;;;;;;;3.26;52.50;96645.81;2067225;28;20659;-61
2022/03/12 02:56:41;;;;;;;26.67;12.27;;;;;;;3.40;51.86;96655.63;2069164;28;20201;-60
2022/03/12 02:57:46;;;;;;;29.67;13.60;;;;;;;3.29;52.53;96656.06;2069527;28;20285;-61
2022/03/12 02:58:48;;;;;;;25.23;13.45;;;;;;;3.14;52.31;96643.69;2071041;28;20198;-61
2022/03/12 02:59:50;;;;;;;23.95;14.70;;;;;;;3.20;52.60;96659.00;2069184;28;20205;-61
2022/03/12 03:00:53;;;;;;;32.75;13.27;;;;;;;3.21;52.65;96663.25;2070258;28;20225;-61
2022/03/12 03:02:03;;;;;;;25.30;13.98;;;;;;;3.27;52.88;96654.41;2070211;28;20206;-61
2022/03/12 03:03:06;;;;;;;23.95;13.13;;;;;;;3.40;52.61;96655.63;2070861;28;20289;-61
2022/03/12 03:04:08;;;;;;;24.13;13.25;;;;;;;3.39;52.58;96658.25;2071632;28;20198;-61
2022/03/12 03:05:23;;;;;;;28.50;13.40;;;;;;;3.42;52.30;96663.34;2067108;28;20533;-61
2022/03/12 03:06:24;;;;;;;24.27;12.73;;;;;;;3.41;51.79;96656.44;2068075;28;20201;-61
2022/03/12 03:07:26;;;;;;;32.35;13.30;;;;;;;3.39;51.82;96658.25;2069577;28;20206;-61
2022/03/12 03:08:28;;;;;;;23.33;12.63;;;;;;;3.34;52.20;96653.28;2069481;28;20221;-61
2022/03/12 03:09:30;;;;;;;26.98;14.23;;;;;;;3.32;52.08;96650.75;2068006;28;20209;-61
2022/03/12 03:10:35;;;;;;;27.20;14.07;;;;;;;3.42;51.91;96650.38;2067614;28;20872;-61
2022/03/12 03:11:39;;;;;;;26.42;13.30;;;;;;;3.36;52.37;96648.88;2067983;28;20198;-61
2022/03/12 03:12:41;;;;;;;22.42;13.10;;;;;;;3.34;52.56;96658.44;2069385;28;20207;-61
2022/03/12 03:13:44;;;;;;;22.08;12.27;;;;;;;3.28;52.32;96646.59;2068271;28;20198;-61
2022/03/12 03:14:48;;;;;;;22.13;12.85;;;;;;;3.21;52.65;96660.66;2068660;28;20300;-61
2022/03/12 03:15:54;;;;;;;25.60;13.25;;;;;;;3.33;52.42;96661.94;2068342;28;20240;-61
2022/03/12 03:16:59;;;;;;;23.20;13.70;;;;;;;3.25;52.29;96667.41;2070790;28;20202;-61
2022/03/12 03:18:04;;;;;;;22.65;12.40;;;;;;;3.28;52.45;96667.28;2067011;28;20198;-61
2022/03/12 03:19:06;;;;;;;22.02;12.02;;;;;;;3.32;52.60;96665.44;2068347;28;20199;-61
2022/03/12 03:20:08;;;;;;;26.20;12.25;;;;;;;3.34;52.30;96661.88;2069273;28;20208;-61
2022/03/12 03:21:13;;;;;;;23.02;12.07;;;;;;;3.37;52.46;96666.09;2070698;28;20201;-61
2022/03/12 03:22:14;;;;;;;26.98;13.13;;;;;;;3.30;52.34;96673.25;2069739;28;20205;-61
2022/03/12 03:23:16;;;;;;;27.65;12.70;;;;;;;3.27;52.54;96675.94;2068042;28;20206;-61
2022/03/12 03:24:22;;;;;;;28.40;13.10;;;;;;;3.12;52.26;96676.56;2068987;28;20198;-62
2022/03/12 03:25:23;;;;;;;29.15;13.98;;;;;;;3.20;52.09;96682.28;2065937;28;20225;-61
2022/03/12 03:26:33;;;;;;;21.83;12.38;;;;;;;3.28;51.92;96680.25;2066928;28;20194;-61
2022/03/12 03:27:35;;;;;;;28.30;11.40;;;;;;;3.27;52.22;96675.13;2068649;28;20226;-61
2022/03/12 03:28:37;;;;;;;30.13;14.00;;;;;;;3.32;52.18;96671.44;2069022;28;20678;-60
2022/03/12 03:29:38;;;;;;;34.47;13.27;;;;;;;3.27;52.56;96682.88;2067618;28;20191;-61
2022/03/12 03:30:40;;;;;;;24.85;13.10;;;;;;;3.22;52.71;96675.31;2067372;28;20218;-60
2022/03/12 03:31:42;;;;;;;24.05;13.50;;;;;;;3.24;52.09;96685.59;2068466;28;20201;-61
2022/03/12 03:32:44;;;;;;;22.38;12.32;;;;;;;3.23;52.59;96678.72;2069770;28;20229;-61
2022/03/12 03:33:45;;;;;;;23.90;12.60;;;;;;;3.26;52.20;96679.47;2070008;28;20746;-60
2022/03/12 03:34:47;;;;;;;22.55;10.82;;;;;;;3.19;52.18;96688.34;2067749;28;20217;-60
2022/03/12 03:35:49;;;;;;;25.63;11.15;;;;;;;3.13;52.00;96684.25;2069411;28;20221;-60
2022/03/12 03:36:50;;;;;;;25.25;12.20;;;;;;;3.24;52.05;96678.66;2069908;28;20644;-60
2022/03/12 03:37:52;;;;;;;23.30;11.82;;;;;;;3.24;52.29;96685.59;2071142;28;20592;-60
2022/03/12 03:38:54;;;;;;;21.42;12.38;;;;;;;3.09;53.21;96685.25;2067188;28;20199;-60
2022/03/12 03:39:55;;;;;;;24.17;12.95;;;;;;;3.07;53.50;96688.81;2070373;28;20224;-60
2022/03/12 03:40:57;;;;;;;31.27;11.90;;;;;;;3.10;53.30;96683.53;2065335;28;20216;-60
2022/03/12 03:41:58;;;;;;;30.23;13.00;;;;;;;3.18;53.01;96691.84;2068000;28;20197;-60
2022/03/12 03:43:33;;;;;;;25.33;12.18;;;;;;;2.91;53.48;96688.53;2067411;28;20533;-60
2022/03/12 03:44:35;;;;;;;25.08;11.23;;;;;;;2.99;53.05;96696.88;2069094;28;20217;-60
2022/03/12 03:45:37;;;;;;;27.25;11.85;;;;;;;2.91;53.60;96686.78;2069543;28;20240;-60
2022/03/12 03:46:38;;;;;;;28.58;11.95;;;;;;;2.91;53.52;96686.78;2068314;28;20198;-60
2022/03/12 03:47:40;;;;;;;22.02;10.95;;;;;;;3.11;52.90;96692.97;2068508;28;20573;-60
2022/03/12 03:48:41;;;;;;;23.52;12.73;;;;;;;3.05;53.11;96690.63;2067885;28;20226;-60
2022/03/12 03:49:44;;;;;;;30.70;11.88;;;;;;;2.89;53.82;96690.34;2068809;28;20208;-60
2022/03/12 03:50:47;;;;;;;23.27;11.82;;;;;;;2.91;53.48;96683.38;2069190;28;20238;-60
2022/03/12 03:51:49;;;;;;;28.63;12.90;;;;;;;2.97;53.05;96683.97;2069103;28;20199;-60
2022/03/12 03:53:03;;;;;;;23.80;12.95;;;;;;;3.08;52.15;96693.09;2067203;28;20194;-60
2022/03/12 03:54:08;;;;;;;23.27;12.75;;;;;;;3.07;52.21;96681.88;2068847;28;20636;-60
2022/03/12 03:55:09;;;;;;;29.48;12.50;;;;;;;3.31;52.22;96687.91;2067468;28;20214;-60
2022/03/12 03:56:11;;;;;;;23.30;11.85;;;;;;;3.22;52.06;96683.06;2069077;28;20198;-60
2022/03/12 03:57:14;;;;;;;28.27;12.50;;;;;;;3.09;52.85;96690.44;2070333;28;20212;-59
2022/03/12 03:58:16;;;;;;;24.25;11.57;;;;;;;3.02;52.72;96680.38;2069375;28;20688;-60
2022/03/12 03:59:17;;;;;;;23.60;11.65;;;;;;;3.09;52.96;96687.00;2068856;28;20198;-60
2022/03/12 04:00:22;;;;;;;21.25;11.88;;;;;;;2.99;53.19;96675.31;2067228;28;20755;-60
2022/03/12 04:01:26;;;;;;;26.60;13.48;;;;;;;3.03;53.53;96688.09;2068496;28;20739;-60
2022/03/12 04:02:27;;;;;;;27.25;14.20;;;;;;;2.86;53.86;96693.91;2066712;28;20665;-59
2022/03/12 04:03:33;;;;;;;26.80;13.52;;;;;;;2.88;54.35;96697.28;2068024;28;20236;-60
2022/03/12 04:04:36;;;;;;;28.20;13.88;;;;;;;2.92;54.27;96691.09;2067161;28;20240;-60
2022/03/12 04:05:38;;;;;;;26.20;13.80;;;;;;;3.00;53.97;96698.56;2068509;28;20222;-60
2022/03/12 04:06:40;;;;;;;23.10;11.48;;;;;;;3.02;53.82;96693.31;2068352;28;20739;-60
2022/03/12 04:07:42;;;;;;;19.38;13.13;;;;;;;3.13;53.75;96699.78;2067941;28;20201;-60
2022/03/12 04:08:44;;;;;;;25.30;12.73;;;;;;;3.08;53.83;96687.94;2064453;28;20202;-60
2022/03/12 04:09:45;;;;;;;22.40;12.10;;;;;;;2.99;53.86;96696.03;2066748;28;20214;-60
2022/03/12 04:10:47;;;;;;;25.05;13.02;;;;;;;2.99;54.07;96701.19;2066450;28;20222;-60
2022/03/12 04:11:49;;;;;;;29.63;12.68;;;;;;;2.98;54.23;96695.19;2069027;28;20687;-60
2022/03/12 04:12:50;;;;;;;20.50;12.38;;;;;;;3.03;54.46;96692.41;2069209;28;20693;-60
2022/03/12 04:13:53;;;;;;;23.20;12.27;;;;;;;3.04;54.36;96699.25;2067151;28;20234;-60
2022/03/12 04:14:56;;;;;;;22.02;12.45;;;;;;;3.07;54.11;96697.41;2066684;28;20251;-60
2022/03/12 04:15:59;;;;;;;29.20;12.80;;;;;;;3.15;53.95;96697.13;2068505;28;20746;-61
2022/03/12 04:17:02;;;;;;;23.08;11.90;;;;;;;3.05;53.88;96706.16;2064239;28;20203;-61
2022/03/12 04:18:05;;;;;;;26.88;13.38;;;;;;;2.77;55.14;96697.66;2066941;28;20194;-59
2022/03/12 04:19:07;;;;;;;29.90;15.23;;;;;;;2.18;58.25;96700.59;2067372;28;20201;-59
2022/03/12 04:20:09;;;;;;;27.48;14.55;;;;;;;2.42;57.76;96704.06;2066078;28;20309;-59
2022/03/12 04:21:13;;;;;;;31.23;14.80;;;;;;;2.34;57.85;96696.56;2067696;28;20229;-59
2022/03/12 04:22:16;;;;;;;22.65;13.00;;;;;;;2.38;57.88;96699.91;2068188;28;20251;-59
2022/03/12 04:23:21;;;;;;;23.63;12.68;;;;;;;2.56;56.73;96701.84;2067653;28;20333;-59
2022/03/12 04:24:26;;;;;;;23.40;12.60;;;;;;;2.61;56.32;96698.25;2068118;28;20210;-59
2022/03/12 04:25:31;;;;;;;25.23;12.48;;;;;;;2.61;56.31;96700.81;2067674;28;20233;-60
2022/03/12 04:26:35;;;;;;;24.25;12.55;;;;;;;2.70;55.88;96695.34;2068200;28;20201;-59
2022/03/12 04:27:38;;;;;;;26.50;12.43;;;;;;;2.70;55.73;96690.16;2066496;28;20732;-59
2022/03/12 04:28:40;;;;;;;34.72;12.88;;;;;;;2.63;55.93;96688.72;2066494;28;20285;-59
2022/03/12 04:29:42;;;;;;;27.75;12.15;;;;;;;2.68;55.57;96695.38;2069708;28;20217;-62
2022/03/12 04:30:44;;;;;;;27.02;12.93;;;;;;;2.58;56.10;96696.63;2065884;28;20688;-63
2022/03/12 04:31:47;;;;;;;26.88;13.98;;;;;;;2.63;55.89;96696.47;2066946;28;20198;-62
2022/03/12 04:32:49;;;;;;;21.55;12.30;;;;;;;2.64;55.65;96700.72;2066404;28;20260;-63
2022/03/12 04:33:51;;;;;;;27.90;12.57;;;;;;;2.64;55.50;96698.97;2069006;28;20201;-62
2022/03/12 04:34:53;;;;;;;22.35;11.65;;;;;;;2.64;55.63;96705.91;2068905;28;20205;-63
2022/03/12 04:35:55;;;;;;;23.65;12.68;;;;;;;2.63;55.94;96709.41;2069854;28;20194;-63
2022/03/12 04:36:56;;;;;;;25.50;13.65;;;;;;;2.63;56.12;96706.81;2069355;28;20237;-62
2022/03/12 04:37:59;;;;;;;24.05;13.20;;;;;;;2.66;55.82;96710.13;2067751;28;20217;-62
2022/03/12 04:39:01;;;;;;;20.70;12.75;;;;;;;2.58;56.37;96717.31;2068180;28;20199;-62
2022/03/12 04:40:08;;;;;;;30.33;13.80;;;;;;;2.44;57.07;96712.63;2068116;28;20190;-63
2022/03/12 04:41:13;;;;;;;31.13;14.13;;;;;;;2.45;57.59;96716.03;2067055;28;20221;-62
2022/03/12 04:42:18;;;;;;;24.13;13.02;;;;;;;2.49;57.27;96721.06;2068557;28;20201;-62
2022/03/12 04:43:19;;;;;;;28.05;14.60;;;;;;;2.52;57.47;96726.13;2068283;28;20213;-62
2022/03/12 04:44:22;;;;;;;28.50;15.25;;;;;;;2.35;58.32;96720.69;2067126;28;20556;-62
2022/03/12 04:45:26;;;;;;;33.65;16.02;;;;;;;2.49;58.04;96721.06;2062481;28;20708;-63
2022/03/12 04:46:28;;;;;;;36.30;15.13;;;;;;;2.06;59.52;96730.25;2062156;28;20194;-62
2022/03/12 04:47:30;;;;;;;31.20;14.70;;;;;;;2.18;59.75;96735.03;2066891;28;20201;-62
2022/03/12 04:48:32;;;;;;;31.90;14.15;;;;;;;2.11;59.13;96736.09;2067371;28;20209;-62
2022/03/12 04:49:33;;;;;;;36.65;15.25;;;;;;;2.07;59.17;96739.69;2068053;28;20193;-62
2022/03/12 04:50:35;;;;;;;30.55;15.30;;;;;;;2.03;58.66;96737.28;2068921;28;20226;-62
2022/03/12 04:51:36;;;;;;;28.67;13.60;;;;;;;2.18;58.43;96744.53;2068864;28;20384;-62
2022/03/12 04:52:40;;;;;;;25.08;12.90;;;;;;;2.26;58.07;96745.09;2070103;28;20747;-62